イルクーツク の空港の天気 - METARとTAF

イルクーツク国際空港 ( UIII / IKT ) - ロシア イルクーツク
飛行場実況気象(Metar)
観測時間11/15 23:00 IRKT (11/15 15:00 UTC)
風向・風速北北西 4m/s
視程3000m
天気現象弱いしゅう雪
全天の8割程度の雲 雲底高度 880m
気温-14℃
湿度85%
気圧1019hPa
METARUIII 151500Z 33004MPS 3000 -SHSN BKN029CB M14/M16 Q1019 R30/490245 NOSIG RMK QFE719/0959
過去の天気等 Google飛行場航空写真 Wunderground天気予報

過去48時間のMETAR

飛行場予報(TAF)
発表時間: 11/15 22:00 IRKT (11/15 14:00 UTC)
予報対象時間: 15日23時 IRKT ~ 16日23時 IRKT
風向・風速北北西 6m/s
視程3100m
天気現象弱いしゅう雪 煙
全天の8割程度の積乱雲 雲底高度 340m
15日23時 IRKT ~ 16日20時 IRKT に一時的に
風向・風速北西 11m/s 瞬間風速 16m/s
視程500m
天気現象強いしゅう雪 高い地吹雪
全天を覆う雲 鉛直視程 60m
TAF UIII 151400Z 1515/1615 34006MPS 3100 -SHSN FU BKN011CB
TEMPO 1515/1612 32011G16MPS 0500 +SHSN BLSN VV002